Duck Valley, Nevada
Current Conditions -  °F | °C
As of 8:58 PM on Thursday 30 Oct 2014 (Local Time) from KMUO Reporting Station
Clear Clear  
Wind Chill: 65°   Ceiling: Unl
Heat Index: 65°   Visibility: 10mi
Dew Point: 32°   Wind: 20mph
Humidity: 29%   Direction: 110°ESE
Pressure: 29.91"   Gusts: 28mph
Location:  41.9458°N, 116.094°W
Report Text: KMUO 310358Z AUTO 11017G24KT 10SM CLR 18/00 A2991 RMK AO2 PK WND 10026/51 SLP120 T01811001
Loading
Personal Weather Stations






























Interactive Weather Map
Tropical Storm Tracking
New forecast layout! Learn more

10-Day Weather Forecast

Advertisements
Track Severe Weather on mobile